Terminal Aerodrome Forecast
Issued by NWS Spokane, WA

Home | Current Version | Previous Version | Text Only | Print | Product List | Glossary On
Versions: 1 2 3 4 5 6 7 8 9 10 11 12 13 14 15 16 17 18 19 20 21 22 23
000
FTUS46 KOTX 170539
TAFLWS
TAF
KLWS 170539Z 1706/1806 25003KT P6SM SKC
     FM171500 13009KT P6SM SCT150 SCT200
     FM172100 28018G33KT P6SM BKN150
     FM180100 28010G23KT P6SM SCT150
     FM180400 27009KT P6SM SCT200=

USA.gov is the U.S. government's official web portal to all federal, state and local government web resources and services.